Asbury, New Jersey
Current Conditions -  °F | °C
As of 11:49 PM on Tuesday 21 Oct 2014 (Local Time) from KSMQ Reporting Station
Haze Haze  
Wind Chill: 50°   Ceiling: Unl
Heat Index: 50°   Visibility: 3mi
Dew Point: 48°   Wind: 7mph
Humidity: 94%   Direction: 320°NW
Pressure: 29.89"   Gusts: NA
Location:  40.7°N, 75.01°W
Report Text: KSMQ 220349Z AUTO 32006KT 3SM BR SCT090 10/09 A2989 RMK AO2
Loading
Personal Weather Stations






























Interactive Weather Map
Tropical Storm Tracking
New forecast layout! Learn more

10-Day Weather Forecast

Advertisements
Track Severe Weather on mobile